Time;durP1;ratioP1;P1;durP2;ratioP2;P2;SDS_P1;SDS_P2;PMS_P1;PMS_P2;Temp;Humidity;BMP_temperature;BMP_pressure;BME280_temperature;BME280_humidity;BME280_pressure;Samples;Min_cycle;Max_cycle;Signal;HPM_P1;HPM_P2
2024/03/11 00:00:43;;;;;;;0.40;0.40;;;;;;;;;;5060573;28;20127;-60
2024/03/11 00:03:12;;;;;;;0.55;0.55;;;;;;;;;;5059487;28;20127;-61
2024/03/11 00:05:43;;;;;;;0.45;0.45;;;;;;;;;;5057987;28;20083;-59
2024/03/11 00:08:16;;;;;;;0.40;0.40;;;;;;;;;;5059945;28;20049;-59
2024/03/11 00:10:45;;;;;;;0.50;0.50;;;;;;;;;;5080961;28;20052;-61
2024/03/11 00:13:16;;;;;;;0.57;0.52;;;;;;;;;;5062882;28;20152;-62
2024/03/11 00:15:45;;;;;;;0.47;0.47;;;;;;;;;;5063711;28;20045;-64
2024/03/11 00:18:14;;;;;;;0.75;0.75;;;;;;;;;;5062337;28;20040;-59
2024/03/11 00:20:46;;;;;;;0.50;0.50;;;;;;;;;;5062754;28;20036;-62
2024/03/11 00:23:14;;;;;;;2.28;0.60;;;;;;;;;;5060046;28;20048;-63
2024/03/11 00:25:43;;;;;;;0.40;0.40;;;;;;;;;;5060696;28;21228;-62
2024/03/11 00:28:12;;;;;;;0.50;0.50;;;;;;;;;;5060855;28;20515;-61
2024/03/11 00:30:40;;;;;;;0.60;0.60;;;;;;;;;;5045598;28;20049;-59
2024/03/11 00:33:09;;;;;;;0.50;0.50;;;;;;;;;;5047296;28;20081;-60
2024/03/11 00:35:43;;;;;;;0.40;0.40;;;;;;;;;;5043828;28;20132;-61
2024/03/11 00:38:14;;;;;;;0.57;0.57;;;;;;;;;;5045497;28;20131;-60
2024/03/11 00:40:42;;;;;;;0.57;0.50;;;;;;;;;;5043685;28;20069;-60
2024/03/11 00:43:11;;;;;;;0.43;0.43;;;;;;;;;;5048010;28;20467;-59
2024/03/11 00:45:40;;;;;;;0.57;0.50;;;;;;;;;;5047305;28;20052;-60
2024/03/11 00:48:11;;;;;;;0.50;0.50;;;;;;;;;;5044575;28;20049;-63
2024/03/11 00:50:40;;;;;;;0.57;0.57;;;;;;;;;;5062859;28;20044;-59
2024/03/11 00:53:09;;;;;;;0.50;0.50;;;;;;;;;;5061780;28;20052;-60
2024/03/11 00:55:39;;;;;;;0.40;0.40;;;;;;;;;;5061949;28;20135;-61
2024/03/11 00:58:08;;;;;;;0.40;0.40;;;;;;;;;;5062853;28;20056;-59
2024/03/11 01:00:36;;;;;;;0.75;0.50;;;;;;;;;;5062787;28;20420;-60
2024/03/11 01:03:06;;;;;;;0.52;0.50;;;;;;;;;;5061897;28;20110;-61
2024/03/11 01:05:34;;;;;;;0.60;0.60;;;;;;;;;;5063868;28;20140;-61
2024/03/11 01:08:03;;;;;;;0.40;0.40;;;;;;;;;;5059872;28;20041;-59
2024/03/11 01:10:31;;;;;;;0.50;0.50;;;;;;;;;;5062195;28;20395;-61
2024/03/11 01:13:01;;;;;;;0.50;0.50;;;;;;;;;;5062938;28;20048;-59
2024/03/11 01:15:30;;;;;;;0.50;0.50;;;;;;;;;;5062299;28;20568;-62
2024/03/11 01:17:58;;;;;;;1.55;0.50;;;;;;;;;;5061763;28;20643;-60
2024/03/11 01:20:29;;;;;;;0.55;0.55;;;;;;;;;;5060509;28;20040;-64
2024/03/11 01:22:57;;;;;;;0.50;0.50;;;;;;;;;;5067184;28;20082;-62
2024/03/11 01:25:26;;;;;;;0.40;0.40;;;;;;;;;;5065189;28;20053;-60
2024/03/11 01:27:54;;;;;;;0.73;0.47;;;;;;;;;;5062701;28;20440;-61
2024/03/11 01:30:24;;;;;;;0.50;0.50;;;;;;;;;;5040221;28;20119;-60
2024/03/11 01:32:52;;;;;;;0.50;0.50;;;;;;;;;;5042425;28;20088;-63
2024/03/11 01:35:21;;;;;;;0.73;0.50;;;;;;;;;;5041372;28;20052;-58
2024/03/11 01:37:50;;;;;;;0.50;0.50;;;;;;;;;;5040383;28;20138;-59
2024/03/11 01:40:18;;;;;;;0.50;0.50;;;;;;;;;;5040717;28;20061;-60
2024/03/11 01:42:47;;;;;;;0.82;0.60;;;;;;;;;;5040917;28;20095;-60
2024/03/11 01:45:16;;;;;;;0.63;0.60;;;;;;;;;;5041562;28;20481;-62
2024/03/11 01:47:47;;;;;;;0.50;0.50;;;;;;;;;;5040415;28;20061;-59
2024/03/11 01:50:16;;;;;;;0.50;0.50;;;;;;;;;;5039638;28;20060;-60
2024/03/11 01:52:48;;;;;;;0.50;0.50;;;;;;;;;;5043344;28;20053;-59
2024/03/11 01:55:17;;;;;;;0.75;0.70;;;;;;;;;;5043431;28;20128;-60
2024/03/11 01:57:46;;;;;;;0.50;0.50;;;;;;;;;;5041397;28;20131;-59
2024/03/11 02:00:15;;;;;;;0.50;0.50;;;;;;;;;;5040583;28;20128;-59
2024/03/11 02:02:43;;;;;;;0.43;0.43;;;;;;;;;;5040475;28;20460;-60
2024/03/11 02:05:14;;;;;;;0.50;0.50;;;;;;;;;;5043393;28;20045;-62
2024/03/11 02:07:43;;;;;;;0.40;0.40;;;;;;;;;;5042530;28;20056;-60
2024/03/11 02:10:14;;;;;;;0.50;0.50;;;;;;;;;;5044380;28;20482;-59
2024/03/11 02:12:45;;;;;;;0.50;0.50;;;;;;;;;;5039649;28;20081;-64
2024/03/11 02:15:13;;;;;;;0.60;0.60;;;;;;;;;;5040411;28;20054;-61
2024/03/11 02:17:42;;;;;;;0.50;0.50;;;;;;;;;;5043604;28;20461;-61
2024/03/11 02:20:15;;;;;;;0.45;0.45;;;;;;;;;;5035792;28;20048;-60
2024/03/11 02:22:47;;;;;;;0.40;0.40;;;;;;;;;;5040797;28;20050;-60
2024/03/11 02:25:19;;;;;;;0.50;0.50;;;;;;;;;;5040344;28;20437;-60
2024/03/11 02:27:48;;;;;;;0.60;0.60;;;;;;;;;;5040455;28;20052;-62
2024/03/11 02:30:17;;;;;;;0.63;0.40;;;;;;;;;;5039849;28;20037;-62
2024/03/11 02:32:46;;;;;;;1.38;0.50;;;;;;;;;;5038486;28;20045;-59
2024/03/11 02:35:15;;;;;;;0.50;0.50;;;;;;;;;;5040394;28;20418;-59
2024/03/11 02:37:44;;;;;;;0.47;0.47;;;;;;;;;;5041417;28;20057;-61
2024/03/11 02:40:17;;;;;;;0.43;0.43;;;;;;;;;;5038735;28;20049;-60
2024/03/11 02:42:47;;;;;;;0.40;0.40;;;;;;;;;;5037025;28;20049;-60
2024/03/11 02:45:19;;;;;;;0.52;0.50;;;;;;;;;;5039931;28;20048;-64
2024/03/11 02:47:49;;;;;;;1.88;0.52;;;;;;;;;;5040109;28;20165;-61
2024/03/11 02:50:18;;;;;;;0.50;0.50;;;;;;;;;;5040484;28;20088;-62
2024/03/11 02:52:46;;;;;;;1.30;0.60;;;;;;;;;;5038494;28;20540;-59
2024/03/11 02:55:18;;;;;;;0.60;0.60;;;;;;;;;;5040639;28;20103;-61
2024/03/11 02:57:48;;;;;;;0.60;0.50;;;;;;;;;;5040428;28;20565;-62
2024/03/11 03:00:17;;;;;;;0.40;0.40;;;;;;;;;;5039144;28;20496;-59
2024/03/11 03:02:49;;;;;;;0.55;0.52;;;;;;;;;;5040799;28;20052;-59
2024/03/11 03:05:19;;;;;;;0.40;0.40;;;;;;;;;;5039049;28;20052;-62
2024/03/11 03:07:47;;;;;;;0.90;0.70;;;;;;;;;;5042232;28;20048;-62
2024/03/11 03:10:16;;;;;;;0.68;0.57;;;;;;;;;;5058107;28;20140;-60
2024/03/11 03:12:46;;;;;;;1.38;0.60;;;;;;;;;;5060539;28;20408;-59
2024/03/11 03:15:16;;;;;;;0.60;0.50;;;;;;;;;;5058970;28;20048;-62
2024/03/11 03:17:45;;;;;;;2.60;0.50;;;;;;;;;;5058685;28;20210;-62
2024/03/11 03:20:14;;;;;;;1.08;0.45;;;;;;;;;;5059865;28;20741;-62
2024/03/11 03:22:43;;;;;;;0.63;0.50;;;;;;;;;;5060056;28;20057;-59
2024/03/11 03:25:12;;;;;;;0.52;0.50;;;;;;;;;;5061597;28;20055;-61
2024/03/11 03:27:41;;;;;;;0.95;0.60;;;;;;;;;;5062687;28;20060;-60
2024/03/11 03:30:10;;;;;;;0.73;0.60;;;;;;;;;;5063507;28;20287;-63
2024/03/11 03:32:40;;;;;;;0.50;0.50;;;;;;;;;;5059918;28;20497;-59
2024/03/11 03:35:09;;;;;;;0.50;0.50;;;;;;;;;;5061233;28;20136;-59
2024/03/11 03:37:39;;;;;;;0.40;0.40;;;;;;;;;;5055502;28;20076;-59
2024/03/11 03:40:15;;;;;;;2.03;0.50;;;;;;;;;;5059940;28;20036;-62
2024/03/11 03:42:46;;;;;;;0.60;0.60;;;;;;;;;;5058185;28;20048;-60
2024/03/11 03:45:15;;;;;;;0.60;0.60;;;;;;;;;;5060274;28;20127;-61
2024/03/11 03:47:46;;;;;;;0.55;0.50;;;;;;;;;;5062493;28;20485;-59
2024/03/11 03:50:14;;;;;;;1.27;0.50;;;;;;;;;;5047006;28;20049;-61
2024/03/11 03:52:43;;;;;;;0.50;0.50;;;;;;;;;;5041358;28;20044;-59
2024/03/11 03:55:12;;;;;;;0.55;0.50;;;;;;;;;;5044836;28;20053;-61
2024/03/11 03:57:41;;;;;;;0.50;0.50;;;;;;;;;;5042966;28;20048;-59
2024/03/11 04:00:15;;;;;;;0.65;0.50;;;;;;;;;;5041198;28;20063;-59
2024/03/11 04:02:46;;;;;;;1.38;0.60;;;;;;;;;;5043694;28;20099;-62
2024/03/11 04:05:14;;;;;;;0.82;0.70;;;;;;;;;;5041745;28;20048;-61
2024/03/11 04:07:43;;;;;;;0.63;0.60;;;;;;;;;;5044442;28;20549;-63
2024/03/11 04:10:13;;;;;;;0.98;0.68;;;;;;;;;;5058236;28;20080;-59
2024/03/11 04:12:44;;;;;;;0.40;0.40;;;;;;;;;;5065153;28;20419;-58
2024/03/11 04:15:13;;;;;;;0.50;0.50;;;;;;;;;;5062767;28;20044;-59
2024/03/11 04:17:42;;;;;;;0.70;0.70;;;;;;;;;;5059591;28;20862;-59
2024/03/11 04:20:13;;;;;;;0.70;0.50;;;;;;;;;;5065829;28;20053;-60
2024/03/11 04:22:41;;;;;;;0.80;0.65;;;;;;;;;;5061734;28;20072;-59
2024/03/11 04:25:15;;;;;;;1.50;0.70;;;;;;;;;;5061795;28;20052;-62
2024/03/11 04:27:45;;;;;;;1.02;0.60;;;;;;;;;;5063195;28;20697;-59
2024/03/11 04:30:15;;;;;;;0.55;0.55;;;;;;;;;;5063891;28;20057;-64
2024/03/11 04:32:51;;;;;;;0.93;0.77;;;;;;;;;;5061887;28;20165;-59
2024/03/11 04:35:24;;;;;;;1.20;0.70;;;;;;;;;;5060626;28;20063;-59
2024/03/11 04:37:53;;;;;;;2.90;0.77;;;;;;;;;;5064158;28;20129;-59
2024/03/11 04:40:22;;;;;;;1.30;0.57;;;;;;;;;;5060543;28;20048;-59
2024/03/11 04:42:50;;;;;;;0.75;0.70;;;;;;;;;;5062953;28;20567;-60
2024/03/11 04:45:19;;;;;;;0.70;0.70;;;;;;;;;;5060694;28;20086;-61
2024/03/11 04:47:47;;;;;;;0.52;0.52;;;;;;;;;;5061161;28;20052;-58
2024/03/11 04:50:24;;;;;;;0.50;0.50;;;;;;;;;;5045039;28;20045;-60
2024/03/11 04:52:56;;;;;;;0.55;0.52;;;;;;;;;;5043119;28;20494;-63
2024/03/11 04:55:24;;;;;;;0.75;0.70;;;;;;;;;;5040723;28;20104;-59
2024/03/11 04:57:54;;;;;;;0.77;0.70;;;;;;;;;;5036389;28;20516;-58
2024/03/11 05:00:26;;;;;;;0.60;0.60;;;;;;;;;;5059755;28;20052;-59
2024/03/11 05:02:55;;;;;;;0.75;0.63;;;;;;;;;;5060976;28;20044;-60
2024/03/11 05:05:25;;;;;;;1.20;0.70;;;;;;;;;;5060815;28;20502;-61
2024/03/11 05:07:55;;;;;;;0.70;0.70;;;;;;;;;;5061460;28;20067;-60
2024/03/11 05:10:23;;;;;;;0.60;0.60;;;;;;;;;;5061688;28;20049;-59
2024/03/11 05:12:52;;;;;;;0.68;0.68;;;;;;;;;;5057836;28;20517;-58
2024/03/11 05:15:21;;;;;;;2.80;0.80;;;;;;;;;;5062821;28;20406;-59
2024/03/11 05:17:50;;;;;;;0.70;0.70;;;;;;;;;;5059298;28;20045;-64
2024/03/11 05:20:19;;;;;;;0.70;0.60;;;;;;;;;;5059524;28;20067;-60
2024/03/11 05:22:48;;;;;;;1.85;0.70;;;;;;;;;;5060713;28;20127;-59
2024/03/11 05:25:18;;;;;;;0.70;0.70;;;;;;;;;;5060218;28;20045;-59
2024/03/11 05:27:47;;;;;;;1.95;0.90;;;;;;;;;;5061230;28;20044;-61
2024/03/11 05:30:17;;;;;;;2.08;0.75;;;;;;;;;;5061672;28;20047;-59
2024/03/11 05:32:46;;;;;;;0.80;0.80;;;;;;;;;;5056646;28;20056;-59
2024/03/11 05:35:16;;;;;;;1.42;0.95;;;;;;;;;;5059274;28;20067;-63
2024/03/11 05:37:48;;;;;;;1.02;0.80;;;;;;;;;;5061989;28;20077;-59
2024/03/11 05:40:16;;;;;;;0.90;0.80;;;;;;;;;;5060938;28;20059;-60
2024/03/11 05:42:48;;;;;;;0.80;0.80;;;;;;;;;;5061795;28;20052;-59
2024/03/11 05:45:17;;;;;;;0.80;0.75;;;;;;;;;;5063192;28;20036;-59
2024/03/11 05:47:45;;;;;;;1.27;0.80;;;;;;;;;;5065958;28;20041;-59
2024/03/11 05:50:16;;;;;;;0.90;0.80;;;;;;;;;;5057925;28;20048;-63
2024/03/11 05:52:45;;;;;;;0.75;0.75;;;;;;;;;;5063831;28;20044;-59
2024/03/11 05:55:14;;;;;;;0.90;0.85;;;;;;;;;;5066324;28;20051;-62
2024/03/11 05:57:44;;;;;;;1.00;0.88;;;;;;;;;;5063953;28;20048;-59
2024/03/11 06:00:16;;;;;;;0.80;0.80;;;;;;;;;;5057726;28;20045;-61
2024/03/11 06:02:46;;;;;;;1.23;0.95;;;;;;;;;;5068338;28;20048;-58
2024/03/11 06:05:17;;;;;;;2.55;0.98;;;;;;;;;;5066893;28;20512;-60
2024/03/11 06:07:46;;;;;;;1.83;0.90;;;;;;;;;;5058342;28;20060;-59
2024/03/11 06:10:14;;;;;;;1.02;0.73;;;;;;;;;;5056934;28;20048;-59
2024/03/11 06:12:43;;;;;;;1.50;0.90;;;;;;;;;;5054391;28;20111;-59
2024/03/11 06:15:14;;;;;;;0.93;0.82;;;;;;;;;;5068229;28;20048;-59
2024/03/11 06:17:43;;;;;;;1.65;1.00;;;;;;;;;;5061321;28;20044;-60
2024/03/11 06:20:13;;;;;;;0.60;0.60;;;;;;;;;;5066686;28;20044;-58
2024/03/11 06:22:43;;;;;;;0.70;0.70;;;;;;;;;;5062931;28;20040;-58
2024/03/11 06:25:12;;;;;;;0.60;0.60;;;;;;;;;;5056820;28;20052;-58
2024/03/11 06:27:41;;;;;;;0.85;0.82;;;;;;;;;;5064931;28;20052;-59
2024/03/11 06:30:09;;;;;;;1.17;0.90;;;;;;;;;;5062968;28;20063;-60
2024/03/11 06:32:40;;;;;;;0.73;0.73;;;;;;;;;;5061606;28;20061;-59
2024/03/11 06:35:09;;;;;;;0.88;0.65;;;;;;;;;;5069737;28;20060;-58
2024/03/11 06:37:38;;;;;;;1.02;0.82;;;;;;;;;;5067465;28;20147;-59
2024/03/11 06:40:08;;;;;;;3.00;0.90;;;;;;;;;;5059292;28;20076;-59
2024/03/11 06:42:36;;;;;;;1.02;0.90;;;;;;;;;;5065687;28;20447;-60
2024/03/11 06:45:05;;;;;;;3.08;1.00;;;;;;;;;;5065270;28;20106;-60
2024/03/11 06:47:34;;;;;;;0.80;0.80;;;;;;;;;;5062750;28;20144;-60
2024/03/11 06:50:06;;;;;;;1.00;0.90;;;;;;;;;;5067954;28;20053;-59
2024/03/11 06:52:34;;;;;;;0.70;0.70;;;;;;;;;;5061619;28;20120;-62
2024/03/11 06:55:04;;;;;;;0.88;0.88;;;;;;;;;;5066424;28;20044;-59
2024/03/11 06:57:34;;;;;;;0.95;0.80;;;;;;;;;;5070719;28;20056;-60
2024/03/11 07:00:02;;;;;;;0.82;0.77;;;;;;;;;;5066660;28;20044;-58
2024/03/11 07:02:32;;;;;;;2.28;1.00;;;;;;;;;;5070179;28;20141;-58
2024/03/11 07:05:09;;;;;;;1.10;0.75;;;;;;;;;;5074043;28;20057;-59
2024/03/11 07:07:39;;;;;;;1.27;0.77;;;;;;;;;;5068430;28;20138;-58
2024/03/11 07:10:09;;;;;;;1.10;0.88;;;;;;;;;;5067026;28;20037;-60
2024/03/11 07:12:38;;;;;;;1.05;0.85;;;;;;;;;;5072575;28;20101;-58
2024/03/11 07:15:08;;;;;;;0.75;0.73;;;;;;;;;;5064404;28;20076;-58
2024/03/11 07:17:36;;;;;;;1.65;1.10;;;;;;;;;;5074393;28;20045;-58
2024/03/11 07:20:08;;;;;;;1.27;0.98;;;;;;;;;;5065412;28;20068;-60
2024/03/11 07:22:38;;;;;;;4.18;1.00;;;;;;;;;;5068378;28;20040;-58
2024/03/11 07:25:09;;;;;;;0.95;0.80;;;;;;;;;;5072200;28;20076;-57
2024/03/11 07:27:39;;;;;;;1.05;0.95;;;;;;;;;;5070885;28;20051;-60
2024/03/11 07:30:09;;;;;;;1.38;0.95;;;;;;;;;;5065918;28;20588;-60
2024/03/11 07:32:38;;;;;;;0.90;0.80;;;;;;;;;;5066614;28;20048;-59
2024/03/11 07:35:06;;;;;;;1.35;0.70;;;;;;;;;;5067882;28;20430;-58
2024/03/11 07:37:36;;;;;;;1.77;1.02;;;;;;;;;;5068151;28;20056;-58
2024/03/11 07:40:11;;;;;;;1.38;0.90;;;;;;;;;;5067745;28;20049;-58
2024/03/11 07:42:42;;;;;;;1.05;0.68;;;;;;;;;;5068215;28;20116;-59
2024/03/11 07:45:12;;;;;;;1.40;0.60;;;;;;;;;;5065662;28;20048;-60
2024/03/11 07:47:40;;;;;;;2.72;0.90;;;;;;;;;;5067076;28;20098;-58
2024/03/11 07:50:11;;;;;;;0.88;0.80;;;;;;;;;;5066993;28;20123;-60
2024/03/11 07:52:40;;;;;;;1.40;0.75;;;;;;;;;;5064511;28;20507;-58
2024/03/11 07:55:09;;;;;;;0.52;0.52;;;;;;;;;;5067150;28;20044;-59
2024/03/11 07:57:37;;;;;;;2.17;0.80;;;;;;;;;;5068158;28;20044;-58
2024/03/11 08:00:10;;;;;;;4.47;0.77;;;;;;;;;;5065943;28;20076;-60
2024/03/11 08:02:38;;;;;;;6.85;1.55;;;;;;;;;;5065681;28;20036;-57
2024/03/11 08:05:13;;;;;;;2.08;1.02;;;;;;;;;;5063446;28;20052;-58
2024/03/11 08:07:42;;;;;;;3.80;1.38;;;;;;;;;;5067866;28;20080;-58
2024/03/11 08:10:11;;;;;;;2.05;0.75;;;;;;;;;;5066357;28;20457;-60
2024/03/11 08:12:41;;;;;;;0.73;0.70;;;;;;;;;;5067920;28;20051;-57
2024/03/11 08:15:12;;;;;;;1.60;0.82;;;;;;;;;;5059464;28;20051;-58
2024/03/11 08:17:42;;;;;;;0.73;0.73;;;;;;;;;;5067942;28;20052;-59
2024/03/11 08:20:16;;;;;;;1.58;0.80;;;;;;;;;;5067177;28;20052;-59
2024/03/11 08:22:45;;;;;;;1.33;0.60;;;;;;;;;;5068254;28;20579;-58
2024/03/11 08:25:14;;;;;;;1.30;0.70;;;;;;;;;;5067855;28;20239;-58
2024/03/11 08:27:42;;;;;;;0.63;0.60;;;;;;;;;;5060192;28;20502;-59
2024/03/11 08:30:13;;;;;;;0.68;0.68;;;;;;;;;;5057198;28;20057;-60
2024/03/11 08:32:42;;;;;;;0.57;0.57;;;;;;;;;;5066677;28;20453;-59
2024/03/11 08:35:11;;;;;;;0.55;0.55;;;;;;;;;;5071620;28;20045;-59
2024/03/11 08:37:41;;;;;;;1.05;0.70;;;;;;;;;;5071840;28;20051;-59
2024/03/11 08:40:14;;;;;;;0.50;0.50;;;;;;;;;;5071388;28;20083;-59
2024/03/11 08:42:44;;;;;;;0.40;0.40;;;;;;;;;;5070486;28;20048;-59
2024/03/11 08:45:18;;;;;;;0.65;0.60;;;;;;;;;;5065096;28;20040;-61
2024/03/11 08:47:47;;;;;;;0.60;0.60;;;;;;;;;;5069315;28;20109;-59
2024/03/11 08:50:16;;;;;;;0.60;0.57;;;;;;;;;;5070371;28;20127;-58
2024/03/11 08:52:45;;;;;;;0.50;0.50;;;;;;;;;;5070391;28;20118;-58
2024/03/11 08:55:15;;;;;;;2.90;0.70;;;;;;;;;;5071899;28;20083;-58
2024/03/11 08:57:45;;;;;;;0.50;0.50;;;;;;;;;;5070043;28;20137;-60
2024/03/11 09:00:16;;;;;;;0.60;0.50;;;;;;;;;;5062873;28;20044;-59
2024/03/11 09:02:45;;;;;;;0.77;0.52;;;;;;;;;;5068990;28;20048;-59
2024/03/11 09:05:17;;;;;;;0.77;0.60;;;;;;;;;;5070500;28;20129;-60
2024/03/11 09:07:48;;;;;;;1.48;0.57;;;;;;;;;;5069514;28;20044;-60
2024/03/11 09:10:16;;;;;;;0.95;0.70;;;;;;;;;;5069007;28;20052;-58
2024/03/11 09:12:45;;;;;;;2.20;0.50;;;;;;;;;;5071390;28;20627;-59
2024/03/11 09:15:16;;;;;;;1.90;0.60;;;;;;;;;;5057633;28;20095;-58
2024/03/11 09:17:50;;;;;;;2.42;0.60;;;;;;;;;;5070451;28;20469;-60
2024/03/11 09:20:20;;;;;;;4.85;0.60;;;;;;;;;;5069339;28;20489;-58
2024/03/11 09:22:50;;;;;;;1.75;0.45;;;;;;;;;;5070563;28;20047;-59
2024/03/11 09:25:22;;;;;;;0.43;0.43;;;;;;;;;;5071272;28;20049;-58
2024/03/11 09:27:52;;;;;;;2.25;0.60;;;;;;;;;;5070466;28;20051;-59
2024/03/11 09:30:21;;;;;;;0.65;0.40;;;;;;;;;;5066914;28;20057;-62
2024/03/11 09:32:51;;;;;;;1.58;0.60;;;;;;;;;;5067726;28;20094;-62
2024/03/11 09:35:20;;;;;;;0.50;0.50;;;;;;;;;;5071009;28;20048;-59
2024/03/11 09:37:51;;;;;;;0.63;0.50;;;;;;;;;;5070735;28;20059;-59
2024/03/11 09:40:23;;;;;;;2.50;0.73;;;;;;;;;;5070507;28;20075;-57
2024/03/11 09:42:54;;;;;;;1.20;0.52;;;;;;;;;;5064815;28;20551;-60
2024/03/11 09:45:26;;;;;;;0.50;0.50;;;;;;;;;;5064397;28;20128;-59
2024/03/11 09:47:57;;;;;;;0.60;0.50;;;;;;;;;;5067511;28;20053;-60
2024/03/11 09:50:30;;;;;;;0.40;0.40;;;;;;;;;;5070498;28;20083;-60
2024/03/11 09:53:03;;;;;;;0.95;0.68;;;;;;;;;;5070094;28;20490;-61
2024/03/11 09:55:32;;;;;;;0.40;0.40;;;;;;;;;;5069185;28;20492;-60
2024/03/11 09:58:05;;;;;;;0.68;0.50;;;;;;;;;;5068320;28;20044;-58
2024/03/11 10:00:35;;;;;;;0.73;0.50;;;;;;;;;;5061592;28;20060;-58
2024/03/11 10:03:09;;;;;;;;;;;;;;;;;;5066110;28;20040;-61
2024/03/11 10:05:39;;;;;;;1.02;0.93;;;;;;;;;;5069663;28;19924;-59
2024/03/11 10:08:09;;;;;;;3.50;0.77;;;;;;;;;;5067285;28;20175;-59
2024/03/11 10:10:39;;;;;;;2.67;0.50;;;;;;;;;;5069432;28;20106;-59
2024/03/11 10:13:08;;;;;;;0.80;0.50;;;;;;;;;;5069832;28;20485;-59
2024/03/11 10:15:36;;;;;;;1.13;0.70;;;;;;;;;;5066250;28;20052;-60
2024/03/11 10:18:25;;;;;;;0.60;0.50;;;;;;;;;;5068694;28;20045;-58
2024/03/11 10:20:58;;;;;;;0.63;0.50;;;;;;;;;;5078484;28;20057;-58
2024/03/11 10:23:27;;;;;;;0.40;0.40;;;;;;;;;;5048995;28;20581;-58
2024/03/11 10:26:17;;;;;;;2.65;0.60;;;;;;;;;;5038691;28;20041;-59
2024/03/11 10:28:47;;;;;;;0.43;0.43;;;;;;;;;;5041001;28;20119;-58
2024/03/11 10:31:23;;;;;;;3.75;1.10;;;;;;;;;;5048507;28;20040;-57
2024/03/11 10:33:53;;;;;;;3.75;0.88;;;;;;;;;;5049251;28;20056;-57
2024/03/11 10:36:25;;;;;;;0.68;0.60;;;;;;;;;;5049175;28;20052;-60
2024/03/11 10:38:55;;;;;;;1.08;0.60;;;;;;;;;;5047635;28;20049;-60
2024/03/11 10:41:24;;;;;;;0.88;0.68;;;;;;;;;;5049083;28;20072;-62
2024/03/11 10:43:54;;;;;;;0.90;0.50;;;;;;;;;;5045232;28;20041;-60
2024/03/11 10:46:23;;;;;;;0.55;0.43;;;;;;;;;;5045983;28;20532;-59
2024/03/11 10:48:54;;;;;;;0.40;0.40;;;;;;;;;;5044859;28;20456;-60
2024/03/11 10:51:24;;;;;;;0.95;0.40;;;;;;;;;;5041496;28;20517;-59
2024/03/11 10:53:53;;;;;;;0.55;0.55;;;;;;;;;;5045574;28;20489;-59
2024/03/11 10:56:24;;;;;;;0.50;0.50;;;;;;;;;;5048779;28;20071;-59
2024/03/11 10:58:55;;;;;;;0.60;0.55;;;;;;;;;;5049132;28;20052;-61
2024/03/11 11:01:32;;;;;;;1.33;0.77;;;;;;;;;;5046703;28;20557;-59
2024/03/11 11:04:05;;;;;;;1.10;0.70;;;;;;;;;;5048797;28;20056;-59
2024/03/11 11:06:36;;;;;;;0.40;0.40;;;;;;;;;;5046248;28;20049;-60
2024/03/11 11:09:11;;;;;;;1.90;0.60;;;;;;;;;;5047368;28;20565;-58
2024/03/11 11:11:49;;;;;;;0.60;0.50;;;;;;;;;;5049157;28;20521;-60
2024/03/11 11:14:18;;;;;;;0.60;0.40;;;;;;;;;;5045811;28;20045;-61
2024/03/11 11:16:49;;;;;;;0.70;0.47;;;;;;;;;;5043761;28;20114;-62
2024/03/11 11:19:19;;;;;;;8.60;2.28;;;;;;;;;;5048678;28;20049;-59
2024/03/11 11:21:50;;;;;;;6.25;1.92;;;;;;;;;;5047528;28;20134;-60
2024/03/11 11:24:29;;;;;;;7.70;1.40;;;;;;;;;;5042220;28;20528;-60
2024/03/11 11:27:05;;;;;;;2.63;0.55;;;;;;;;;;5042462;28;20052;-59
2024/03/11 11:29:35;;;;;;;1.20;0.50;;;;;;;;;;5035430;28;20160;-59
2024/03/11 11:32:05;;;;;;;0.47;0.47;;;;;;;;;;5048120;28;20718;-60
2024/03/11 11:34:49;;;;;;;0.63;0.50;;;;;;;;;;5039721;28;20110;-60
2024/03/11 11:37:35;;;;;;;1.00;0.57;;;;;;;;;;5043737;28;20053;-60
2024/03/11 11:40:19;;;;;;;1.15;0.70;;;;;;;;;;5047274;28;20393;-59
2024/03/11 11:42:49;;;;;;;2.15;0.60;;;;;;;;;;5053861;28;20141;-60
2024/03/11 11:45:39;;;;;;;0.68;0.63;;;;;;;;;;5046009;28;20095;-61
2024/03/11 11:48:20;;;;;;;2.67;0.60;;;;;;;;;;5039941;28;20049;-59
2024/03/11 11:50:50;;;;;;;0.80;0.57;;;;;;;;;;5051674;28;20410;-61
2024/03/11 11:53:27;;;;;;;1.70;0.70;;;;;;;;;;5049887;28;20041;-59
2024/03/11 11:55:56;;;;;;;1.90;0.57;;;;;;;;;;5054885;28;20120;-60
2024/03/11 11:58:25;;;;;;;1.15;0.63;;;;;;;;;;5051256;28;20052;-60
2024/03/11 12:01:01;;;;;;;1.30;0.90;;;;;;;;;;5050585;28;20470;-60
2024/03/11 12:03:34;;;;;;;0.50;0.50;;;;;;;;;;5049837;28;20045;-60
2024/03/11 12:06:04;;;;;;;4.18;0.90;;;;;;;;;;5050674;28;20041;-60
2024/03/11 12:08:33;;;;;;;0.90;0.70;;;;;;;;;;5054055;28;20124;-60
2024/03/11 12:11:12;;;;;;;1.77;0.57;;;;;;;;;;5073075;28;20056;-59
2024/03/11 12:13:41;;;;;;;1.05;0.50;;;;;;;;;;5069174;28;20056;-62
2024/03/11 12:16:11;;;;;;;0.40;0.40;;;;;;;;;;5071324;28;20563;-63
2024/03/11 12:18:42;;;;;;;1.10;0.57;;;;;;;;;;5068561;28;20493;-61
2024/03/11 12:21:13;;;;;;;1.00;0.50;;;;;;;;;;5067822;28;20051;-59
2024/03/11 12:23:43;;;;;;;2.00;0.60;;;;;;;;;;5072552;28;20068;-62
2024/03/11 12:26:13;;;;;;;0.40;0.40;;;;;;;;;;5063287;28;20245;-60
2024/03/11 12:28:57;;;;;;;2.72;0.60;;;;;;;;;;5070409;28;20088;-60
2024/03/11 12:31:25;;;;;;;2.05;0.60;;;;;;;;;;5060760;28;20048;-59
2024/03/11 12:33:54;;;;;;;1.20;0.50;;;;;;;;;;5058811;28;20041;-59
2024/03/11 12:36:23;;;;;;;0.52;0.47;;;;;;;;;;5061954;28;20123;-60
2024/03/11 12:38:53;;;;;;;0.77;0.57;;;;;;;;;;5052647;28;20103;-60
2024/03/11 12:41:42;;;;;;;0.90;0.57;;;;;;;;;;5051594;28;20048;-60
2024/03/11 12:44:14;;;;;;;0.63;0.50;;;;;;;;;;5047454;28;20045;-59
2024/03/11 12:46:44;;;;;;;1.15;0.50;;;;;;;;;;5044818;28;20049;-61
2024/03/11 12:49:13;;;;;;;0.52;0.45;;;;;;;;;;5055594;28;20480;-60
2024/03/11 12:51:41;;;;;;;0.52;0.52;;;;;;;;;;5074498;28;20048;-62
2024/03/11 12:54:18;;;;;;;0.40;0.40;;;;;;;;;;5073476;28;20122;-59
2024/03/11 12:57:07;;;;;;;1.55;0.47;;;;;;;;;;5070402;28;20052;-59
2024/03/11 12:59:37;;;;;;;0.77;0.45;;;;;;;;;;5069495;28;20059;-62
2024/03/11 13:02:09;;;;;;;3.20;0.60;;;;;;;;;;5069756;28;20045;-59
2024/03/11 13:04:38;;;;;;;1.23;0.50;;;;;;;;;;5068351;28;20045;-58
2024/03/11 13:07:08;;;;;;;0.50;0.50;;;;;;;;;;5069748;28;20051;-58
2024/03/11 13:09:40;;;;;;;0.52;0.40;;;;;;;;;;5062791;28;20102;-59
2024/03/11 13:12:16;;;;;;;0.43;0.43;;;;;;;;;;5068640;28;20340;-60
2024/03/11 13:14:45;;;;;;;3.40;0.50;;;;;;;;;;5064738;28;20331;-58
2024/03/11 13:17:14;;;;;;;1.17;0.70;;;;;;;;;;5070776;28;20087;-57
2024/03/11 13:19:44;;;;;;;1.42;0.65;;;;;;;;;;5068436;28;20048;-59
2024/03/11 13:22:18;;;;;;;0.50;0.50;;;;;;;;;;5064677;28;20040;-59
2024/03/11 13:24:48;;;;;;;2.03;0.50;;;;;;;;;;5072214;28;20056;-59
2024/03/11 13:27:18;;;;;;;0.70;0.50;;;;;;;;;;5076445;28;20053;-57
2024/03/11 13:29:47;;;;;;;0.85;0.52;;;;;;;;;;5052559;28;20053;-60
2024/03/11 13:32:16;;;;;;;1.52;0.50;;;;;;;;;;5048368;28;20410;-61
2024/03/11 13:34:44;;;;;;;0.50;0.50;;;;;;;;;;5047925;28;20099;-63
2024/03/11 13:37:13;;;;;;;1.13;0.50;;;;;;;;;;5063603;28;20481;-60
2024/03/11 13:39:41;;;;;;;0.57;0.43;;;;;;;;;;5063519;28;20037;-57
2024/03/11 13:42:12;;;;;;;1.20;0.50;;;;;;;;;;5067924;28;20072;-57
2024/03/11 13:44:41;;;;;;;2.05;0.40;;;;;;;;;;5064893;28;20127;-58
2024/03/11 13:47:12;;;;;;;0.93;0.50;;;;;;;;;;5066970;28;20041;-58
2024/03/11 13:49:42;;;;;;;0.50;0.50;;;;;;;;;;5054861;28;20364;-57
2024/03/11 13:52:11;;;;;;;0.50;0.50;;;;;;;;;;5043694;28;20041;-58
2024/03/11 13:54:40;;;;;;;0.40;0.40;;;;;;;;;;5049661;28;20509;-57
2024/03/11 13:57:09;;;;;;;0.50;0.50;;;;;;;;;;5048942;28;20045;-58
2024/03/11 13:59:39;;;;;;;0.68;0.50;;;;;;;;;;5056678;28;20563;-58
2024/03/11 14:02:09;;;;;;;0.30;0.30;;;;;;;;;;5061977;28;20121;-59
2024/03/11 14:04:39;;;;;;;0.47;0.47;;;;;;;;;;5067675;28;20086;-58
2024/03/11 14:07:08;;;;;;;0.60;0.50;;;;;;;;;;5068177;28;20459;-57
2024/03/11 14:09:36;;;;;;;1.73;0.63;;;;;;;;;;5054041;28;20131;-58
2024/03/11 14:12:07;;;;;;;0.50;0.45;;;;;;;;;;5067523;28;20343;-58
2024/03/11 14:14:35;;;;;;;1.30;0.50;;;;;;;;;;5063678;28;20071;-57
2024/03/11 14:17:07;;;;;;;0.95;0.47;;;;;;;;;;5064566;28;20040;-57
2024/03/11 14:19:36;;;;;;;0.77;0.45;;;;;;;;;;5064230;28;20056;-57
2024/03/11 14:22:06;;;;;;;0.82;0.40;;;;;;;;;;5056899;28;20049;-59
2024/03/11 14:24:35;;;;;;;0.40;0.40;;;;;;;;;;5062398;28;20585;-57
2024/03/11 14:27:03;;;;;;;0.40;0.40;;;;;;;;;;5064780;28;20059;-58
2024/03/11 14:29:34;;;;;;;2.50;0.50;;;;;;;;;;5071713;28;20094;-57
2024/03/11 14:32:04;;;;;;;1.77;0.60;;;;;;;;;;5065522;28;20045;-60
2024/03/11 14:34:34;;;;;;;0.73;0.70;;;;;;;;;;5074802;28;20137;-58
2024/03/11 14:37:03;;;;;;;0.40;0.40;;;;;;;;;;5069612;28;20040;-58
2024/03/11 14:39:32;;;;;;;0.73;0.52;;;;;;;;;;5058913;28;20049;-60
2024/03/11 14:42:01;;;;;;;2.13;0.70;;;;;;;;;;5044311;28;20087;-59
2024/03/11 14:44:31;;;;;;;0.88;0.60;;;;;;;;;;5053827;28;20138;-59
2024/03/11 14:47:00;;;;;;;1.15;0.52;;;;;;;;;;5046405;28;20490;-58
2024/03/11 14:49:28;;;;;;;0.60;0.60;;;;;;;;;;5051618;28;20157;-58
2024/03/11 14:51:59;;;;;;;1.48;0.70;;;;;;;;;;5044068;28;20472;-59
2024/03/11 14:54:29;;;;;;;0.57;0.50;;;;;;;;;;5046106;28;20092;-57
2024/03/11 14:56:58;;;;;;;1.35;0.57;;;;;;;;;;5049355;28;20040;-58
2024/03/11 14:59:27;;;;;;;1.85;0.65;;;;;;;;;;5068648;28;20105;-60
2024/03/11 15:01:55;;;;;;;1.05;0.68;;;;;;;;;;5067856;28;20557;-57